createdAt,value
2023-04-18T00:01:02.013Z,11.24
2023-04-18T00:03:30.320Z,11.24
2023-04-18T00:05:58.316Z,11.24
2023-04-18T00:08:26.183Z,11.23
2023-04-18T00:10:54.142Z,11.23
2023-04-18T00:13:22.169Z,11.23
2023-04-18T00:15:49.930Z,11.23
2023-04-18T00:18:17.839Z,11.21
2023-04-18T00:20:46.467Z,11.19
2023-04-18T00:23:14.917Z,11.20
2023-04-18T00:25:42.786Z,11.17
2023-04-18T00:28:10.800Z,11.19
2023-04-18T00:30:38.568Z,11.21
2023-04-18T00:33:06.630Z,11.23
2023-04-18T00:35:34.850Z,11.24
2023-04-18T00:38:02.649Z,11.23
2023-04-18T00:40:30.736Z,11.20
2023-04-18T00:42:59.541Z,11.20
2023-04-18T00:45:27.374Z,11.16
2023-04-18T00:47:58.390Z,11.12
2023-04-18T00:50:26.417Z,11.11
2023-04-18T00:52:54.762Z,11.08
2023-04-18T00:55:22.661Z,11.07
2023-04-18T00:57:51.444Z,11.08
2023-04-18T01:00:19.400Z,11.08
2023-04-18T01:02:50.123Z,11.09
2023-04-18T01:05:18.790Z,11.08
2023-04-18T01:07:46.549Z,11.06
2023-04-18T01:10:14.674Z,11.05
2023-04-18T01:12:42.382Z,11.04
2023-04-18T01:15:10.457Z,11.00
2023-04-18T01:17:38.691Z,10.97
2023-04-18T01:20:07.168Z,10.95
2023-04-18T01:22:35.068Z,10.98
2023-04-18T01:25:07.595Z,11.01
2023-04-18T01:27:35.421Z,11.00
2023-04-18T01:30:03.631Z,11.00
2023-04-18T01:32:31.401Z,10.99
2023-04-18T01:35:03.537Z,10.97
2023-04-18T01:37:31.890Z,10.93
2023-04-18T01:40:00.206Z,10.94
2023-04-18T01:42:27.928Z,10.93
2023-04-18T01:44:55.799Z,10.91
2023-04-18T01:47:23.665Z,10.91
2023-04-18T01:49:53.017Z,10.91
2023-04-18T01:52:20.909Z,10.89
2023-04-18T01:54:49.023Z,10.90
2023-04-18T01:57:16.853Z,10.88
2023-04-18T01:59:44.680Z,10.83
2023-04-18T02:02:12.793Z,10.83
2023-04-18T02:04:41.111Z,10.80
2023-04-18T02:07:11.788Z,10.79
2023-04-18T02:09:39.847Z,10.79
2023-04-18T02:12:10.797Z,10.81
2023-04-18T02:14:38.797Z,10.81
2023-04-18T02:17:06.737Z,10.83
2023-04-18T02:19:34.799Z,10.81
2023-04-18T02:22:02.734Z,10.81
2023-04-18T02:24:30.530Z,10.79
2023-04-18T02:26:58.446Z,10.76
2023-04-18T02:29:26.145Z,10.75
2023-04-18T02:31:54.177Z,10.76
2023-04-18T02:34:21.882Z,10.76
2023-04-18T02:36:54.533Z,10.78
2023-04-18T02:39:22.248Z,10.79
2023-04-18T02:41:50.246Z,10.78
2023-04-18T02:44:17.976Z,10.78
2023-04-18T02:46:46.204Z,10.77
2023-04-18T02:49:14.335Z,10.73
2023-04-18T02:51:42.295Z,10.72
2023-04-18T02:54:10.566Z,10.69
2023-04-18T02:56:40.246Z,10.70
2023-04-18T02:59:07.994Z,10.70
2023-04-18T03:01:36.501Z,10.72
2023-04-18T03:04:04.532Z,10.74
2023-04-18T03:06:32.677Z,10.73
2023-04-18T03:09:00.730Z,10.74
2023-04-18T03:11:28.664Z,10.72
2023-04-18T03:13:56.484Z,10.70
2023-04-18T03:16:24.806Z,10.67
2023-04-18T03:18:52.541Z,10.65
2023-04-18T03:21:20.774Z,10.65
2023-04-18T03:23:48.947Z,10.65
2023-04-18T03:26:16.879Z,10.65
2023-04-18T03:28:46.062Z,10.65
2023-04-18T03:31:13.871Z,10.63
2023-04-18T03:33:44.375Z,10.64
2023-04-18T03:36:15.823Z,10.61
2023-04-18T03:38:44.170Z,10.59
2023-04-18T03:41:12.190Z,10.56
2023-04-18T03:43:39.912Z,10.53
2023-04-18T03:46:07.787Z,10.52
2023-04-18T03:48:37.381Z,10.54
2023-04-18T03:51:06.402Z,10.57
2023-04-18T03:53:34.213Z,10.57
2023-04-18T03:56:02.036Z,10.59
2023-04-18T03:58:29.954Z,10.59
2023-04-18T04:00:57.776Z,10.58
2023-04-18T04:03:27.989Z,10.57
2023-04-18T04:05:56.049Z,10.54
2023-04-18T04:08:28.234Z,10.52
2023-04-18T04:10:56.329Z,10.50
2023-04-18T04:13:24.369Z,10.51
2023-04-18T04:15:52.226Z,10.46
2023-04-18T04:18:20.592Z,10.52
2023-04-18T04:20:48.306Z,10.53
2023-04-18T04:23:16.034Z,10.53
2023-04-18T04:25:46.459Z,10.52
2023-04-18T04:28:14.198Z,10.50
2023-04-18T04:30:42.024Z,10.47
2023-04-18T04:33:09.754Z,10.44
2023-04-18T04:35:37.753Z,10.44
2023-04-18T04:38:05.972Z,10.45
2023-04-18T04:40:34.014Z,10.47
2023-04-18T04:43:01.899Z,10.46
2023-04-18T04:45:29.906Z,10.47
2023-04-18T04:47:57.833Z,10.46
2023-04-18T04:50:25.629Z,10.43
2023-04-18T04:52:53.480Z,10.41
2023-04-18T04:55:21.415Z,10.40
2023-04-18T04:57:49.265Z,10.41
2023-04-18T05:00:20.986Z,10.41
2023-04-18T05:02:49.458Z,10.42
2023-04-18T05:05:17.666Z,10.43
2023-04-18T05:07:45.440Z,10.43
2023-04-18T05:10:13.302Z,10.43
2023-04-18T05:12:41.175Z,10.43
2023-04-18T05:15:09.281Z,10.44
2023-04-18T05:17:37.314Z,10.42
2023-04-18T05:20:06.054Z,10.41
2023-04-18T05:22:34.017Z,10.42
2023-04-18T05:25:02.718Z,10.45
2023-04-18T05:27:30.616Z,10.47
2023-04-18T05:29:58.522Z,10.48
2023-04-18T05:32:26.379Z,10.47
2023-04-18T05:34:54.159Z,10.46
2023-04-18T05:37:22.669Z,10.46
2023-04-18T05:39:50.493Z,10.37
2023-04-18T05:42:18.595Z,10.42
2023-04-18T05:44:46.421Z,10.41
2023-04-18T05:47:14.272Z,10.42
2023-04-18T05:49:42.062Z,10.43
2023-04-18T05:52:09.915Z,10.44
2023-04-18T05:54:37.644Z,10.46
2023-04-18T05:57:06.005Z,10.46
2023-04-18T05:59:33.929Z,10.45
2023-04-18T06:02:02.174Z,10.48
2023-04-18T06:04:30.315Z,10.46
2023-04-18T06:06:58.198Z,10.47
2023-04-18T06:09:26.816Z,10.46
2023-04-18T06:11:54.716Z,10.48
2023-04-18T06:14:22.813Z,10.49
2023-04-18T06:16:50.835Z,10.48
2023-04-18T06:19:18.781Z,10.50
2023-04-18T06:21:49.746Z,10.49
2023-04-18T06:24:17.813Z,10.51
2023-04-18T06:26:45.759Z,10.52
2023-04-18T06:29:13.525Z,10.53
2023-04-18T06:31:42.427Z,10.55
2023-04-18T06:34:10.184Z,10.55
2023-04-18T06:36:38.164Z,10.54
2023-04-18T06:39:06.065Z,10.52
2023-04-18T06:41:33.997Z,10.52
2023-04-18T06:44:03.365Z,10.53
2023-04-18T06:46:42.883Z,10.54
2023-04-18T06:49:10.768Z,10.58
2023-04-18T06:51:38.522Z,10.58
2023-04-18T06:54:06.301Z,10.60
2023-04-18T06:56:36.395Z,10.59
2023-04-18T06:59:04.444Z,10.58
2023-04-18T07:01:35.506Z,10.57
2023-04-18T07:04:03.644Z,10.56
2023-04-18T07:06:31.690Z,10.57
2023-04-18T07:09:02.197Z,10.59
2023-04-18T07:11:30.062Z,10.63
2023-04-18T07:13:57.975Z,10.65
2023-04-18T07:16:27.470Z,10.66
2023-04-18T07:18:55.585Z,10.66
2023-04-18T07:21:24.024Z,10.67
2023-04-18T07:23:52.069Z,10.66
2023-04-18T07:26:19.974Z,10.64
2023-04-18T07:28:47.707Z,10.61
2023-04-18T07:31:16.772Z,10.60
2023-04-18T07:33:45.139Z,10.57
2023-04-18T07:36:13.013Z,10.61
2023-04-18T07:38:40.754Z,10.61
2023-04-18T07:41:08.759Z,10.62
2023-04-18T07:43:36.526Z,10.63
2023-04-18T07:46:05.488Z,10.63
2023-04-18T07:48:33.616Z,10.62
2023-04-18T07:51:01.460Z,10.61
2023-04-18T07:53:29.465Z,10.61
2023-04-18T07:55:57.146Z,10.62
2023-04-18T07:58:24.949Z,10.65
2023-04-18T08:00:53.028Z,10.67
2023-04-18T08:03:21.138Z,10.68
2023-04-18T08:05:50.326Z,10.70
2023-04-18T08:08:18.275Z,10.71
2023-04-18T08:10:46.362Z,10.72
2023-04-18T08:13:14.269Z,10.71
2023-04-18T08:15:42.676Z,10.70
2023-04-18T08:18:10.895Z,10.72
2023-04-18T08:20:41.419Z,10.74
2023-04-18T08:23:12.211Z,10.75
2023-04-18T08:25:41.615Z,10.79
2023-04-18T08:28:09.449Z,10.82
2023-04-18T08:30:37.438Z,10.86
2023-04-18T08:33:05.335Z,10.88
2023-04-18T08:35:34.264Z,10.90
2023-04-18T08:38:02.760Z,10.90
2023-04-18T08:40:30.687Z,10.92
2023-04-18T08:43:01.310Z,10.91
2023-04-18T08:45:29.707Z,10.90
2023-04-18T08:48:01.623Z,10.91
2023-04-18T08:50:29.521Z,10.93
2023-04-18T08:52:59.807Z,10.94
2023-04-18T08:55:27.687Z,10.94
2023-04-18T08:57:56.171Z,10.96
2023-04-18T09:00:23.981Z,10.97
2023-04-18T09:02:57.167Z,10.99
2023-04-18T09:05:27.367Z,10.99
2023-04-18T09:07:56.312Z,11.01
2023-04-18T09:10:33.552Z,11.02
2023-04-18T09:13:05.695Z,11.03
2023-04-18T09:15:34.693Z,11.04
2023-04-18T09:18:03.342Z,11.04
2023-04-18T09:20:41.743Z,11.06
2023-04-18T09:23:11.619Z,11.09
2023-04-18T09:25:45.408Z,11.12
2023-04-18T09:28:27.227Z,11.16
2023-04-18T09:30:59.437Z,11.19
2023-04-18T09:33:29.446Z,11.19
2023-04-18T09:36:20.097Z,11.20
2023-04-18T09:38:54.632Z,11.21
2023-04-18T09:41:24.988Z,11.22
2023-04-18T09:44:12.356Z,11.20
2023-04-18T09:46:44.484Z,11.23
2023-04-18T09:49:14.535Z,11.25
2023-04-18T09:51:43.970Z,11.27
2023-04-18T09:54:15.501Z,11.30
2023-04-18T09:56:48.087Z,11.32
2023-04-18T09:59:18.673Z,11.34
2023-04-18T10:01:49.907Z,11.35
2023-04-18T10:04:18.445Z,11.35
2023-04-18T10:06:47.004Z,11.36
2023-04-18T10:09:16.339Z,11.35
2023-04-18T10:11:44.548Z,11.39
2023-04-18T10:14:13.878Z,11.40
2023-04-18T10:16:46.075Z,11.39
2023-04-18T10:19:26.131Z,11.44
2023-04-18T10:22:01.571Z,11.44
2023-04-18T10:24:48.733Z,11.45
2023-04-18T10:27:17.888Z,11.44
2023-04-18T10:29:52.404Z,11.43
2023-04-18T10:32:23.454Z,11.42
2023-04-18T10:34:53.686Z,11.42
2023-04-18T10:37:21.801Z,11.43
2023-04-18T10:40:02.827Z,11.44
2023-04-18T10:42:52.850Z,11.44
2023-04-18T10:45:22.545Z,11.48
2023-04-18T10:47:50.937Z,11.51
2023-04-18T10:50:18.846Z,11.54
2023-04-18T10:52:46.734Z,11.57
2023-04-18T10:55:20.851Z,11.61
2023-04-18T10:57:52.299Z,11.64
2023-04-18T11:00:21.791Z,11.65
2023-04-18T11:02:52.509Z,11.64
2023-04-18T11:05:22.916Z,11.66
2023-04-18T11:07:51.499Z,11.66
2023-04-18T11:10:21.037Z,11.66
2023-04-18T11:12:49.610Z,11.66
2023-04-18T11:15:23.322Z,11.68
2023-04-18T11:18:17.434Z,11.71
2023-04-18T11:20:50.657Z,11.75
2023-04-18T11:23:22.857Z,11.76
2023-04-18T11:25:56.676Z,11.81
2023-04-18T11:28:27.409Z,11.83
2023-04-18T11:30:59.505Z,11.84
2023-04-18T11:33:28.742Z,11.85
2023-04-18T11:36:01.074Z,11.85
2023-04-18T11:38:33.937Z,11.87
2023-04-18T11:41:05.103Z,11.89
2023-04-18T11:43:33.885Z,11.90
2023-04-18T11:46:02.161Z,11.93
2023-04-18T11:48:56.849Z,11.96
2023-04-18T11:51:32.542Z,12.00
2023-04-18T11:54:00.741Z,12.01
2023-04-18T11:56:28.563Z,12.02
2023-04-18T11:58:56.517Z,12.04
2023-04-18T12:01:25.756Z,12.03
2023-04-18T12:04:01.635Z,12.04
2023-04-18T12:06:49.323Z,12.05
2023-04-18T12:09:17.701Z,12.06
2023-04-18T12:11:58.555Z,12.10
2023-04-18T12:14:45.572Z,12.15
2023-04-18T12:17:13.638Z,12.18
2023-04-18T12:19:46.991Z,12.20
2023-04-18T12:22:17.236Z,12.21
2023-04-18T12:24:45.120Z,12.21
2023-04-18T12:27:12.955Z,12.20
2023-04-18T12:29:41.028Z,12.18
2023-04-18T12:32:08.771Z,12.17
2023-04-18T12:34:36.515Z,12.17
2023-04-18T12:37:05.191Z,12.18
2023-04-18T12:39:32.950Z,12.19
2023-04-18T12:42:01.104Z,12.21
2023-04-18T12:44:29.080Z,12.24
2023-04-18T12:46:57.237Z,12.27
2023-04-18T12:49:24.995Z,12.30
2023-04-18T12:51:53.388Z,12.32
2023-04-18T12:54:21.179Z,12.33
2023-04-18T12:56:48.881Z,12.35
2023-04-18T12:59:17.511Z,12.36
2023-04-18T13:01:45.451Z,12.39
2023-04-18T13:04:13.670Z,12.42
2023-04-18T13:06:42.766Z,12.46
2023-04-18T13:09:11.080Z,12.52
2023-04-18T13:11:38.850Z,12.56
2023-04-18T13:14:07.247Z,12.59
2023-04-18T13:16:35.056Z,12.62
2023-04-18T13:19:02.897Z,12.65
2023-04-18T13:21:31.546Z,12.66
2023-04-18T13:23:59.319Z,12.67
2023-04-18T13:26:27.431Z,12.68
2023-04-18T13:28:55.709Z,12.70
2023-04-18T13:31:23.645Z,12.69
2023-04-18T13:33:51.950Z,12.72
2023-04-18T13:36:20.201Z,12.73
2023-04-18T13:38:48.584Z,12.76
2023-04-18T13:41:16.382Z,12.78
2023-04-18T13:43:44.224Z,12.77
2023-04-18T13:46:12.210Z,12.76
2023-04-18T13:48:40.076Z,12.74
2023-04-18T13:51:08.202Z,12.72
2023-04-18T13:53:36.128Z,12.73
2023-04-18T13:56:04.039Z,12.75
2023-04-18T13:58:32.232Z,12.77
2023-04-18T14:01:00.216Z,12.82
2023-04-18T14:03:28.931Z,12.85
2023-04-18T14:05:59.606Z,12.89
2023-04-18T14:08:27.323Z,12.91
2023-04-18T14:10:55.547Z,12.93
2023-04-18T14:13:23.597Z,12.95
2023-04-18T14:15:53.129Z,12.97
2023-04-18T14:18:21.903Z,12.97
2023-04-18T14:20:49.833Z,12.97
2023-04-18T14:23:18.085Z,12.97
2023-04-18T14:25:46.260Z,12.96
2023-04-18T14:28:14.416Z,12.98
2023-04-18T14:30:42.265Z,12.99
2023-04-18T14:33:10.290Z,13.01
2023-04-18T14:35:38.486Z,13.05
2023-04-18T14:38:06.504Z,13.09
2023-04-18T14:40:34.585Z,13.12
2023-04-18T14:43:02.675Z,13.14
2023-04-18T14:45:34.283Z,13.17
2023-04-18T14:48:02.499Z,13.17
2023-04-18T14:50:31.147Z,13.18
2023-04-18T14:52:59.108Z,13.18
2023-04-18T14:55:26.921Z,13.16
2023-04-18T14:57:54.929Z,13.17
2023-04-18T15:00:22.900Z,13.20
2023-04-18T15:02:50.919Z,13.20
2023-04-18T15:05:20.347Z,13.21
2023-04-18T15:07:48.365Z,13.26
2023-04-18T15:10:16.360Z,13.31
2023-04-18T15:12:46.956Z,13.38
2023-04-18T15:15:15.038Z,13.42
2023-04-18T15:17:42.951Z,13.43
2023-04-18T15:20:11.024Z,13.47
2023-04-18T15:22:39.115Z,13.48
2023-04-18T15:25:07.608Z,13.47
2023-04-18T15:27:35.591Z,13.46
2023-04-18T15:30:03.924Z,13.43
2023-04-18T15:32:32.883Z,13.42
2023-04-18T15:35:01.081Z,13.37
2023-04-18T15:37:28.962Z,13.34
2023-04-18T15:39:57.226Z,13.30
2023-04-18T15:42:25.487Z,13.28
2023-04-18T15:44:53.251Z,13.27
2023-04-18T15:47:21.488Z,13.26
2023-04-18T15:49:49.299Z,13.25
2023-04-18T15:52:17.178Z,13.24
2023-04-18T15:54:45.191Z,13.23
2023-04-18T15:57:13.050Z,13.23
2023-04-18T15:59:40.874Z,13.20
2023-04-18T16:02:09.058Z,13.18
2023-04-18T16:04:37.138Z,13.15
2023-04-18T16:07:05.146Z,13.11
2023-04-18T16:09:33.288Z,13.09
2023-04-18T16:12:03.343Z,13.08
2023-04-18T16:14:31.797Z,13.07
2023-04-18T16:16:59.823Z,13.05
2023-04-18T16:19:28.096Z,13.04
2023-04-18T16:21:55.955Z,13.04
2023-04-18T16:24:25.812Z,13.03
2023-04-18T16:26:55.622Z,13.02
2023-04-18T16:29:23.993Z,13.01
2023-04-18T16:31:51.992Z,12.98
2023-04-18T16:34:20.067Z,12.96
2023-04-18T16:36:50.738Z,12.95
2023-04-18T16:39:19.448Z,12.91
2023-04-18T16:41:47.569Z,12.92
2023-04-18T16:44:15.561Z,12.91
2023-04-18T16:46:43.831Z,12.94
2023-04-18T16:49:12.215Z,12.98
2023-04-18T16:51:40.708Z,12.99
2023-04-18T16:54:08.839Z,12.98
2023-04-18T16:56:36.763Z,13.00
2023-04-18T16:59:05.279Z,12.98
2023-04-18T17:01:34.072Z,12.95
2023-04-18T17:04:02.610Z,12.95
2023-04-18T17:06:31.570Z,12.90
2023-04-18T17:08:59.929Z,12.88
2023-04-18T17:11:28.318Z,12.87
2023-04-18T17:13:56.404Z,12.87
2023-04-18T17:16:24.675Z,12.87
2023-04-18T17:18:52.717Z,12.88
2023-04-18T17:21:20.632Z,12.88
2023-04-18T17:23:48.730Z,12.87
2023-04-18T17:26:16.946Z,12.86
2023-04-18T17:28:45.024Z,12.84
2023-04-18T17:31:16.240Z,12.82
2023-04-18T17:33:44.844Z,12.79
2023-04-18T17:36:12.949Z,12.76
2023-04-18T17:38:40.789Z,12.74
2023-04-18T17:41:09.005Z,12.72
2023-04-18T17:43:37.001Z,12.72
2023-04-18T17:46:05.178Z,12.74
2023-04-18T17:48:33.258Z,12.76
2023-04-18T17:51:01.381Z,12.76
2023-04-18T17:53:32.030Z,12.76
2023-04-18T17:56:00.503Z,12.75
2023-04-18T17:58:28.529Z,12.74
2023-04-18T18:00:56.654Z,12.72
2023-04-18T18:03:24.887Z,12.68
2023-04-18T18:05:55.134Z,12.68
2023-04-18T18:08:23.248Z,12.65
2023-04-18T18:10:51.690Z,12.66
2023-04-18T18:13:19.677Z,12.67
2023-04-18T18:15:47.841Z,12.67
2023-04-18T18:18:15.867Z,12.67
2023-04-18T18:20:43.898Z,12.66
2023-04-18T18:23:11.839Z,12.66
2023-04-18T18:25:40.406Z,12.66
2023-04-18T18:28:08.467Z,12.64
2023-04-18T18:30:38.281Z,12.61
2023-04-18T18:33:06.408Z,12.58
2023-04-18T18:35:35.172Z,12.56
2023-04-18T18:38:03.090Z,12.55
2023-04-18T18:40:31.380Z,12.56
2023-04-18T18:42:59.616Z,12.57
2023-04-18T18:45:27.550Z,12.57
2023-04-18T18:47:56.124Z,12.56
2023-04-18T18:50:24.046Z,12.56
2023-04-18T18:52:51.943Z,12.55
2023-04-18T18:55:20.527Z,12.53
2023-04-18T18:57:48.423Z,12.49
2023-04-18T19:00:16.884Z,12.47
2023-04-18T19:02:45.665Z,12.45
2023-04-18T19:05:13.711Z,12.43
2023-04-18T19:07:44.262Z,12.41
2023-04-18T19:10:12.282Z,12.36
2023-04-18T19:12:40.230Z,12.36
2023-04-18T19:15:08.701Z,12.34
2023-04-18T19:17:36.848Z,12.34
2023-04-18T19:20:05.360Z,12.33
2023-04-18T19:22:33.196Z,12.36
2023-04-18T19:25:01.659Z,12.38
2023-04-18T19:27:30.809Z,12.39
2023-04-18T19:29:58.662Z,12.40
2023-04-18T19:32:27.293Z,12.39
2023-04-18T19:34:55.325Z,12.39
2023-04-18T19:37:23.160Z,12.37
2023-04-18T19:39:51.353Z,12.37
2023-04-18T19:42:19.198Z,12.37
2023-04-18T19:44:46.979Z,12.37
2023-04-18T19:47:15.809Z,12.36
2023-04-18T19:49:44.517Z,12.34
2023-04-18T19:52:12.338Z,12.32
2023-04-18T19:54:40.516Z,12.33
2023-04-18T19:57:08.570Z,12.35
2023-04-18T19:59:36.629Z,12.36
2023-04-18T20:02:06.317Z,12.37
2023-04-18T20:04:36.920Z,12.37
2023-04-18T20:07:04.997Z,12.36
2023-04-18T20:09:33.004Z,12.34
2023-04-18T20:12:01.976Z,12.32
2023-04-18T20:14:30.534Z,12.31
2023-04-18T20:17:00.632Z,12.28
2023-04-18T20:19:29.927Z,12.25
2023-04-18T20:21:57.928Z,12.21
2023-04-18T20:24:28.368Z,12.18
2023-04-18T20:26:59.104Z,12.17
2023-04-18T20:29:27.741Z,12.18
2023-04-18T20:31:56.148Z,12.20
2023-04-18T20:34:24.028Z,12.21
2023-04-18T20:36:52.697Z,12.20
2023-04-18T20:39:20.826Z,12.19
2023-04-18T20:41:51.622Z,12.19
2023-04-18T20:44:21.200Z,12.16
2023-04-18T20:46:49.014Z,12.15
2023-04-18T20:49:17.043Z,12.12
2023-04-18T20:51:45.522Z,12.09
2023-04-18T20:54:13.744Z,12.07
2023-04-18T20:56:41.747Z,12.04
2023-04-18T20:59:09.843Z,12.03
2023-04-18T21:01:37.735Z,12.02
2023-04-18T21:04:05.624Z,12.01
2023-04-18T21:06:33.586Z,12.00
2023-04-18T21:09:01.634Z,12.01
2023-04-18T21:11:29.586Z,12.03
2023-04-18T21:13:57.583Z,12.04
2023-04-18T21:16:26.117Z,12.04
2023-04-18T21:18:55.255Z,12.05
2023-04-18T21:21:23.158Z,12.04
2023-04-18T21:23:51.229Z,12.03
2023-04-18T21:26:19.017Z,12.02
2023-04-18T21:28:54.767Z,12.00
2023-04-18T21:31:22.814Z,11.96
2023-04-18T21:33:55.387Z,11.94
2023-04-18T21:36:24.833Z,11.92
2023-04-18T21:38:54.012Z,11.92
2023-04-18T21:41:22.435Z,11.92
2023-04-18T21:43:50.685Z,11.91
2023-04-18T21:46:18.940Z,11.91
2023-04-18T21:48:47.765Z,11.89
2023-04-18T21:51:16.939Z,11.87
2023-04-18T21:53:44.864Z,11.88
2023-04-18T21:56:12.850Z,11.86
2023-04-18T21:58:40.624Z,11.85
2023-04-18T22:01:08.466Z,11.82
2023-04-18T22:03:37.315Z,11.82
2023-04-18T22:06:05.990Z,11.83
2023-04-18T22:08:33.897Z,11.85
2023-04-18T22:11:01.778Z,11.85
2023-04-18T22:13:35.888Z,11.83
2023-04-18T22:16:04.016Z,11.85
2023-04-18T22:18:37.943Z,11.82
2023-04-18T22:21:06.835Z,11.79
2023-04-18T22:23:34.641Z,11.77
2023-04-18T22:26:02.328Z,11.75
2023-04-18T22:28:30.531Z,11.72
2023-04-18T22:30:58.495Z,11.70
2023-04-18T22:33:26.414Z,11.67
2023-04-18T22:35:55.960Z,11.65
2023-04-18T22:38:25.399Z,11.65
2023-04-18T22:40:53.223Z,11.67
2023-04-18T22:43:23.944Z,11.68
2023-04-18T22:45:54.550Z,11.68
2023-04-18T22:48:22.584Z,11.69
2023-04-18T22:50:50.409Z,11.69
2023-04-18T22:53:18.176Z,11.68
2023-04-18T22:55:46.811Z,11.66
2023-04-18T22:58:14.792Z,11.64
2023-04-18T23:00:42.762Z,11.60
2023-04-18T23:03:10.986Z,11.57
2023-04-18T23:05:39.101Z,11.53
2023-04-18T23:08:07.141Z,11.50
2023-04-18T23:10:35.269Z,11.45
2023-04-18T23:13:03.084Z,11.42
2023-04-18T23:15:31.304Z,11.40
2023-04-18T23:17:59.255Z,11.38
2023-04-18T23:20:27.142Z,11.35
2023-04-18T23:22:56.048Z,11.33
2023-04-18T23:25:24.082Z,11.30
2023-04-18T23:27:51.858Z,11.27
2023-04-18T23:30:19.612Z,11.25
2023-04-18T23:32:47.601Z,11.24
2023-04-18T23:35:15.552Z,11.22
2023-04-18T23:37:43.824Z,11.19
2023-04-18T23:40:11.840Z,11.20
2023-04-18T23:42:39.664Z,11.19
2023-04-18T23:45:07.805Z,11.19
2023-04-18T23:47:35.786Z,11.18
2023-04-18T23:50:03.987Z,11.18
2023-04-18T23:52:31.837Z,11.17
2023-04-18T23:55:00.825Z,11.16
2023-04-18T23:57:28.937Z,11.14
2023-04-18T23:59:56.690Z,11.13
